createdAt,value
2023-04-16T00:04:38.092Z,85.00
2023-04-16T00:09:37.075Z,83.55
2023-04-16T00:14:36.489Z,84.36
2023-04-16T00:19:35.757Z,82.37
2023-04-16T00:24:34.935Z,82.20
2023-04-16T00:29:35.057Z,82.87
2023-04-16T00:34:34.037Z,82.05
2023-04-16T00:39:33.411Z,83.29
2023-04-16T00:44:35.076Z,83.42
2023-04-16T00:49:34.827Z,83.42
2023-04-16T00:54:33.945Z,84.28
2023-04-16T00:59:33.124Z,84.76
2023-04-16T01:04:36.014Z,84.36
2023-04-16T01:09:35.030Z,83.85
2023-04-16T01:14:36.689Z,84.40
2023-04-16T01:19:38.688Z,84.30
2023-04-16T01:24:38.400Z,84.15
2023-04-16T01:29:37.531Z,84.92
2023-04-16T01:34:36.569Z,84.64
2023-04-16T01:39:35.580Z,86.30
2023-04-16T01:44:34.564Z,84.71
2023-04-16T01:49:34.358Z,85.96
2023-04-16T01:54:33.244Z,84.75
2023-04-16T01:59:32.264Z,85.60
2023-04-16T02:04:32.701Z,85.77
2023-04-16T02:09:34.363Z,85.83
2023-04-16T02:14:35.234Z,86.13
2023-04-16T02:19:34.021Z,85.86
2023-04-16T02:24:33.185Z,84.72
2023-04-16T02:29:36.776Z,85.94
2023-04-16T02:34:43.571Z,86.12
2023-04-16T02:39:44.181Z,85.75
2023-04-16T02:44:43.004Z,85.31
2023-04-16T02:49:42.156Z,84.39
2023-04-16T02:54:41.087Z,84.64
2023-04-16T02:59:40.169Z,85.26
2023-04-16T03:04:39.293Z,84.08
2023-04-16T03:09:38.757Z,84.21
2023-04-16T03:14:37.566Z,85.05
2023-04-16T03:19:36.514Z,86.89
2023-04-16T03:24:35.647Z,85.84
2023-04-16T03:29:37.911Z,85.23
2023-04-16T03:34:38.690Z,85.42
2023-04-16T03:39:37.874Z,84.95
2023-04-16T03:44:37.129Z,84.61
2023-04-16T03:49:36.003Z,85.60
2023-04-16T03:54:34.808Z,84.09
2023-04-16T03:59:45.765Z,85.89
2023-04-16T04:04:44.971Z,85.56
2023-04-16T04:09:44.082Z,84.89
2023-04-16T04:14:43.034Z,83.91
2023-04-16T04:19:47.085Z,83.30
2023-04-16T04:24:46.403Z,84.13
2023-04-16T04:29:45.722Z,85.89
2023-04-16T04:34:44.648Z,83.55
2023-04-16T04:39:43.993Z,85.18
2023-04-16T04:44:45.251Z,85.49
2023-04-16T04:49:44.497Z,85.17
2023-04-16T04:54:43.258Z,83.43
2023-04-16T04:59:42.128Z,85.23
2023-04-16T05:04:42.741Z,82.07
2023-04-16T05:09:41.622Z,82.67
2023-04-16T05:14:40.548Z,82.79
2023-04-16T05:19:39.328Z,82.12
2023-04-16T05:24:38.164Z,81.39
2023-04-16T05:29:37.047Z,80.77
2023-04-16T05:34:35.972Z,80.59
2023-04-16T05:39:34.682Z,79.81
2023-04-16T05:44:33.816Z,79.43
2023-04-16T05:49:32.640Z,79.91
2023-04-16T05:54:31.505Z,77.55
2023-04-16T05:59:30.980Z,78.64
2023-04-16T06:04:31.031Z,77.46
2023-04-16T06:09:30.531Z,75.59
2023-04-16T06:14:29.311Z,75.96
2023-04-16T06:19:28.031Z,76.03
2023-04-16T06:24:27.045Z,75.57
2023-04-16T06:29:33.654Z,74.71
2023-04-16T06:34:39.534Z,74.15
2023-04-16T06:39:38.329Z,73.78
2023-04-16T06:44:37.221Z,72.45
2023-04-16T06:49:36.237Z,72.17
2023-04-16T06:54:35.345Z,70.97
2023-04-16T06:59:34.176Z,72.97
2023-04-16T07:04:33.039Z,72.14
2023-04-16T07:09:31.793Z,69.60
2023-04-16T07:14:30.597Z,69.55
2023-04-16T07:19:32.558Z,68.61
2023-04-16T07:24:31.348Z,66.99
2023-04-16T07:29:30.327Z,65.94
2023-04-16T07:34:29.100Z,65.31
2023-04-16T07:39:28.513Z,66.01
2023-04-16T07:44:28.183Z,64.52
2023-04-16T07:49:27.592Z,65.74
2023-04-16T07:54:28.842Z,65.24
2023-04-16T07:59:28.219Z,64.69
2023-04-16T08:04:29.949Z,73.08
2023-04-16T08:09:29.362Z,63.83
2023-04-16T08:14:28.484Z,58.21
2023-04-16T08:19:27.290Z,56.06
2023-04-16T08:24:26.412Z,55.15
2023-04-16T08:29:31.944Z,57.53
2023-04-16T08:34:31.247Z,63.39
2023-04-16T08:39:30.341Z,65.02
2023-04-16T08:44:33.861Z,64.30
2023-04-16T08:49:36.138Z,64.59
2023-04-16T08:54:44.644Z,61.59
2023-04-16T08:59:47.914Z,59.64
2023-04-16T09:04:48.628Z,59.46
2023-04-16T09:09:51.078Z,58.59
2023-04-16T09:14:50.991Z,59.30
2023-04-16T09:19:49.837Z,55.61
2023-04-16T09:24:49.008Z,57.54
2023-04-16T09:29:47.873Z,57.90
2023-04-16T09:34:59.834Z,55.25
2023-04-16T09:40:01.378Z,55.90
2023-04-16T09:45:02.017Z,53.15
2023-04-16T09:50:02.351Z,54.15
2023-04-16T09:55:01.180Z,52.06
2023-04-16T10:00:06.077Z,53.29
2023-04-16T10:05:05.139Z,57.61
2023-04-16T10:10:05.457Z,57.69
2023-04-16T10:15:05.039Z,53.68
2023-04-16T10:20:04.227Z,54.06
2023-04-16T10:25:04.194Z,53.39
2023-04-16T10:30:04.425Z,53.81
2023-04-16T10:35:03.408Z,57.15
2023-04-16T10:40:22.562Z,54.99
2023-04-16T10:45:27.627Z,54.00
2023-04-16T10:50:37.997Z,53.15
2023-04-16T10:55:39.212Z,54.24
2023-04-16T11:00:51.193Z,52.63
2023-04-16T11:05:50.065Z,51.39
2023-04-16T11:10:49.297Z,53.24
2023-04-16T11:15:48.693Z,52.39
2023-04-16T11:20:47.497Z,51.26
2023-04-16T11:25:46.593Z,52.97
2023-04-16T11:30:46.219Z,53.03
2023-04-16T11:35:46.095Z,53.69
2023-04-16T11:40:44.992Z,49.93
2023-04-16T11:46:02.657Z,48.98
2023-04-16T11:51:04.289Z,51.79
2023-04-16T11:56:04.784Z,50.49
2023-04-16T12:01:04.386Z,48.03
2023-04-16T12:06:08.642Z,49.49
2023-04-16T12:11:07.807Z,45.71
2023-04-16T12:16:18.458Z,47.48
2023-04-16T12:21:17.396Z,47.21
2023-04-16T12:26:18.211Z,47.64
2023-04-16T12:31:17.014Z,45.12
2023-04-16T12:36:19.790Z,44.19
2023-04-16T12:41:18.657Z,43.76
2023-04-16T12:46:17.474Z,41.49
2023-04-16T12:51:16.265Z,40.86
2023-04-16T12:56:15.712Z,44.48
2023-04-16T13:01:14.518Z,44.09
2023-04-16T13:06:15.095Z,44.80
2023-04-16T13:11:14.119Z,46.03
2023-04-16T13:16:13.105Z,47.12
2023-04-16T13:21:12.196Z,48.25
2023-04-16T13:26:13.102Z,47.74
2023-04-16T13:31:12.069Z,46.56
2023-04-16T13:36:11.321Z,46.41
2023-04-16T13:41:10.097Z,51.12
2023-04-16T13:46:08.902Z,51.90
2023-04-16T13:51:08.409Z,48.25
2023-04-16T13:56:07.377Z,49.18
2023-04-16T14:01:06.532Z,48.25
2023-04-16T14:06:05.641Z,48.25
2023-04-16T14:11:06.414Z,49.63
2023-04-16T14:16:05.770Z,51.28
2023-04-16T14:21:05.090Z,54.17
2023-04-16T14:26:04.032Z,54.24
2023-04-16T14:31:02.984Z,54.40
2023-04-16T14:36:03.361Z,53.37
2023-04-16T14:41:02.482Z,54.43
2023-04-16T14:46:01.337Z,55.39
2023-04-16T14:51:00.109Z,57.31
2023-04-16T14:55:59.410Z,59.36
2023-04-16T15:01:01.369Z,59.12
2023-04-16T15:06:00.440Z,61.97
2023-04-16T15:10:59.352Z,64.87
2023-04-16T15:15:58.321Z,66.45
2023-04-16T15:20:57.200Z,65.39
2023-04-16T15:25:56.023Z,65.48
2023-04-16T15:30:56.477Z,65.80
2023-04-16T15:35:55.333Z,65.17
2023-04-16T15:40:54.123Z,63.75
2023-04-16T15:45:52.944Z,66.26
2023-04-16T15:50:52.896Z,66.90
2023-04-16T15:55:53.654Z,67.42
2023-04-16T16:00:52.644Z,67.11
2023-04-16T16:05:51.492Z,68.24
2023-04-16T16:10:50.267Z,68.96
2023-04-16T16:15:50.730Z,69.80
2023-04-16T16:20:49.808Z,69.93
2023-04-16T16:25:48.627Z,71.88
2023-04-16T16:30:47.608Z,71.96
2023-04-16T16:35:46.456Z,70.80
2023-04-16T16:40:45.337Z,71.55
2023-04-16T16:45:44.220Z,70.32
2023-04-16T16:50:43.183Z,69.37
2023-04-16T16:55:42.250Z,69.80
2023-04-16T17:00:41.264Z,70.71
2023-04-16T17:05:40.612Z,71.61
2023-04-16T17:10:39.441Z,72.46
2023-04-16T17:15:38.222Z,72.54
2023-04-16T17:20:37.103Z,72.59
2023-04-16T17:25:36.579Z,71.88
2023-04-16T17:30:35.501Z,72.73
2023-04-16T17:35:34.379Z,72.87
2023-04-16T17:40:33.212Z,73.46
2023-04-16T17:45:33.420Z,75.08
2023-04-16T17:50:32.328Z,73.77
2023-04-16T17:55:31.456Z,74.55
2023-04-16T18:00:31.294Z,73.47
2023-04-16T18:05:30.949Z,74.19
2023-04-16T18:10:31.597Z,74.35
2023-04-16T18:15:30.854Z,74.53
2023-04-16T18:20:29.809Z,77.20
2023-04-16T18:25:34.538Z,77.02
2023-04-16T18:30:34.735Z,76.41
2023-04-16T18:35:33.666Z,76.85
2023-04-16T18:40:37.239Z,79.16
2023-04-16T18:45:36.223Z,79.66
2023-04-16T18:50:35.445Z,80.17
2023-04-16T18:55:34.235Z,82.48
2023-04-16T19:00:33.021Z,84.76
2023-04-16T19:05:32.171Z,85.66
2023-04-16T19:10:31.231Z,84.30
2023-04-16T19:15:32.047Z,83.92
2023-04-16T19:20:36.291Z,83.57
2023-04-16T19:25:36.591Z,82.99
2023-04-16T19:30:35.373Z,82.00
2023-04-16T19:35:34.680Z,82.29
2023-04-16T19:40:33.609Z,82.51
2023-04-16T19:45:32.463Z,82.14
2023-04-16T19:50:31.264Z,82.13
2023-04-16T19:55:30.018Z,81.59
2023-04-16T20:00:28.771Z,82.44
2023-04-16T20:05:29.498Z,82.53
2023-04-16T20:10:28.285Z,82.82
2023-04-16T20:15:27.303Z,81.52
2023-04-16T20:20:26.230Z,81.59
2023-04-16T20:25:26.262Z,83.19
2023-04-16T20:30:29.292Z,83.15
2023-04-16T20:35:27.915Z,81.47
2023-04-16T20:40:30.365Z,81.47
2023-04-16T20:45:32.333Z,81.54
2023-04-16T20:50:31.196Z,81.28
2023-04-16T20:55:29.952Z,81.73
2023-04-16T21:00:28.688Z,81.82
2023-04-16T21:05:29.968Z,81.88
2023-04-16T21:10:28.799Z,81.40
2023-04-16T21:15:27.562Z,81.97
2023-04-16T21:20:27.340Z,81.96
2023-04-16T21:25:27.323Z,81.76
2023-04-16T21:30:26.122Z,81.81
2023-04-16T21:35:24.882Z,82.06
2023-04-16T21:40:23.654Z,83.10
2023-04-16T21:45:22.901Z,82.73
2023-04-16T21:50:21.711Z,82.74
2023-04-16T21:55:20.940Z,81.87
2023-04-16T22:00:21.169Z,82.49
2023-04-16T22:05:20.216Z,81.57
2023-04-16T22:10:19.099Z,82.31
2023-04-16T22:15:17.823Z,85.07
2023-04-16T22:20:17.141Z,84.61
2023-04-16T22:25:16.330Z,86.41
2023-04-16T22:30:15.236Z,87.97
2023-04-16T22:35:14.229Z,84.06
2023-04-16T22:40:13.241Z,84.28
2023-04-16T22:45:12.771Z,83.48
2023-04-16T22:50:12.226Z,83.74
2023-04-16T22:55:11.101Z,83.09
2023-04-16T23:00:15.862Z,83.55
2023-04-16T23:05:15.107Z,82.82
2023-04-16T23:10:14.037Z,83.43
2023-04-16T23:15:12.974Z,83.77
2023-04-16T23:20:13.263Z,82.71
2023-04-16T23:25:12.190Z,82.78
2023-04-16T23:30:11.488Z,84.01
2023-04-16T23:35:10.518Z,83.01
2023-04-16T23:40:10.056Z,82.58
2023-04-16T23:45:09.459Z,82.80
2023-04-16T23:50:09.370Z,83.16
2023-04-16T23:55:08.642Z,83.80
